Search for airport 
image banner adimage banner adimage banner ad
image banner ad

PN36 - Rayne

Located in Home, United States

ICAO - PN36, IATA -

Data provided by Airmate  

General information

Coordinates: N40°44'0" W79°4'2"
Elevation is 1420 feet MSL.
Magnetic variation is -08° East
View others Airports in Pennsylvania

Operational data

Special qualification required
Current time UTC:
Current local time:
METAR: KIDI 132035Z AUTO 00000KT 10SM FEW043 SCT090 29/19 A2988 RMK A01
View NOTAMs / SUP AIP / TFR affecting this airport [VIEW]
Communications frequencies: [VIEW]

Runways:

RWY identifierQFULength (ft)Width (ft)SurfaceLDA (ft)
091600100GRASS
271600100GRASS

Airport contact information

Address: Home United States

Satellite view of PN36